Terminal Aerodrome Forecast
Issued by NWS

Home | Current Version | Previous Version | Text Only | Print | Product List | Glossary On
Versions: 1 2 3 4 5 6 7 8 9 10 11 12 13 14 15
000
FTUS41 KCAR 301120
TAFHUL
TAF
KHUL 301120Z 3012/3112 19012KT P6SM BKN250
     FM301800 19018KT P6SM OVC025
     FM302000 19016KT P6SM OVC015
     FM302100 19015KT P6SM OVC008
     FM310000 19010KT P6SM OVC015
     FM311000 27007KT P6SM BKN015=

USA.gov is the U.S. government's official web portal to all federal, state and local government web resources and services.